Terminal Aerodrome Forecast
Issued by NWS

Home | Current Version | Previous Version | Text Only | Print | Product List | Glossary On
Versions: 1 2 3 4 5 6 7 8 9 10 11 12 13 14 15 16 17 18 19 20 21 22 23 24 25 26 27 28 29
000
FTPQ31 PGUM 251728
TAFGUM
TAF

TAF
PGSN 251728Z 2518/2618 08011KT 6SM SHRA VCTS SCT015CB SCT030 BKN120
      TEMPO 2518/2522 3SM +SHRA SCT015 OVC025
     FM260100 10011KT P6SM VCSH SCT018 SCT030 BKN120
     FM260900 09008KT P6SM VCSH SCT018 BKN120=

USA.gov is the U.S. government's official web portal to all federal, state and local government web resources and services.